sensor_id;sensor_type;location;lat;lon;timestamp;P1;durP1;ratioP1;P2;durP2;ratioP2
13568;SDS011;6856;51.460;7.158;2023-02-28T00:01:44;4.60;;;2.20;;
13568;SDS011;6856;51.460;7.158;2023-02-28T00:04:18;3.03;;;2.20;;
13568;SDS011;6856;51.460;7.158;2023-02-28T00:06:51;3.27;;;1.93;;
13568;SDS011;6856;51.460;7.158;2023-02-28T00:09:26;3.47;;;2.50;;
13568;SDS011;6856;51.460;7.158;2023-02-28T00:12:01;4.07;;;2.30;;
13568;SDS011;6856;51.460;7.158;2023-02-28T00:14:44;2.77;;;1.93;;
13568;SDS011;6856;51.460;7.158;2023-02-28T00:17:17;3.47;;;2.03;;
13568;SDS011;6856;51.460;7.158;2023-02-28T00:19:53;3.60;;;2.10;;
13568;SDS011;6856;51.460;7.158;2023-02-28T00:22:27;3.13;;;2.40;;
13568;SDS011;6856;51.460;7.158;2023-02-28T00:25:01;2.83;;;2.00;;
13568;SDS011;6856;51.460;7.158;2023-02-28T00:27:38;3.57;;;2.00;;
13568;SDS011;6856;51.460;7.158;2023-02-28T00:30:15;3.40;;;2.23;;
13568;SDS011;6856;51.460;7.158;2023-02-28T00:32:50;2.97;;;1.97;;
13568;SDS011;6856;51.460;7.158;2023-02-28T00:35:24;4.30;;;2.57;;
13568;SDS011;6856;51.460;7.158;2023-02-28T00:37:58;3.63;;;2.20;;
13568;SDS011;6856;51.460;7.158;2023-02-28T00:40:32;3.43;;;2.47;;
13568;SDS011;6856;51.460;7.158;2023-02-28T00:43:09;3.23;;;2.20;;
13568;SDS011;6856;51.460;7.158;2023-02-28T00:45:43;3.33;;;2.20;;
13568;SDS011;6856;51.460;7.158;2023-02-28T00:48:16;3.97;;;2.57;;
13568;SDS011;6856;51.460;7.158;2023-02-28T00:50:50;5.23;;;2.30;;
13568;SDS011;6856;51.460;7.158;2023-02-28T00:53:24;2.67;;;2.17;;
13568;SDS011;6856;51.460;7.158;2023-02-28T00:55:58;5.37;;;2.40;;
13568;SDS011;6856;51.460;7.158;2023-02-28T00:58:33;3.23;;;2.27;;
13568;SDS011;6856;51.460;7.158;2023-02-28T01:01:07;4.00;;;2.20;;
13568;SDS011;6856;51.460;7.158;2023-02-28T01:03:42;3.80;;;2.27;;
13568;SDS011;6856;51.460;7.158;2023-02-28T01:06:16;3.67;;;2.30;;
13568;SDS011;6856;51.460;7.158;2023-02-28T01:08:50;4.37;;;2.63;;
13568;SDS011;6856;51.460;7.158;2023-02-28T01:11:24;3.00;;;2.00;;
13568;SDS011;6856;51.460;7.158;2023-02-28T01:14:00;2.97;;;1.80;;
13568;SDS011;6856;51.460;7.158;2023-02-28T01:16:35;3.30;;;2.10;;
13568;SDS011;6856;51.460;7.158;2023-02-28T01:19:09;2.33;;;1.70;;
13568;SDS011;6856;51.460;7.158;2023-02-28T01:21:44;3.60;;;2.60;;
13568;SDS011;6856;51.460;7.158;2023-02-28T01:24:18;2.77;;;2.03;;
13568;SDS011;6856;51.460;7.158;2023-02-28T01:26:52;2.77;;;2.30;;
13568;SDS011;6856;51.460;7.158;2023-02-28T01:29:27;5.20;;;2.30;;
13568;SDS011;6856;51.460;7.158;2023-02-28T01:32:02;4.17;;;2.30;;
13568;SDS011;6856;51.460;7.158;2023-02-28T01:34:37;3.23;;;2.10;;
13568;SDS011;6856;51.460;7.158;2023-02-28T01:37:10;4.20;;;2.20;;
13568;SDS011;6856;51.460;7.158;2023-02-28T01:39:45;3.33;;;2.10;;
13568;SDS011;6856;51.460;7.158;2023-02-28T01:42:19;4.23;;;2.30;;
13568;SDS011;6856;51.460;7.158;2023-02-28T01:45:16;2.27;;;1.80;;
13568;SDS011;6856;51.460;7.158;2023-02-28T01:47:58;2.90;;;1.70;;
13568;SDS011;6856;51.460;7.158;2023-02-28T01:50:39;2.83;;;1.70;;
13568;SDS011;6856;51.460;7.158;2023-02-28T01:53:19;3.27;;;1.70;;
13568;SDS011;6856;51.460;7.158;2023-02-28T01:55:59;2.23;;;1.67;;
13568;SDS011;6856;51.460;7.158;2023-02-28T01:58:38;1.90;;;1.47;;
13568;SDS011;6856;51.460;7.158;2023-02-28T02:01:13;3.03;;;2.23;;
13568;SDS011;6856;51.460;7.158;2023-02-28T02:03:53;2.00;;;1.60;;
13568;SDS011;6856;51.460;7.158;2023-02-28T02:06:31;3.77;;;2.20;;
13568;SDS011;6856;51.460;7.158;2023-02-28T02:09:10;2.33;;;1.80;;
13568;SDS011;6856;51.460;7.158;2023-02-28T02:11:45;2.93;;;2.23;;
13568;SDS011;6856;51.460;7.158;2023-02-28T02:14:31;2.70;;;1.70;;
13568;SDS011;6856;51.460;7.158;2023-02-28T02:17:35;3.07;;;1.70;;
13568;SDS011;6856;51.460;7.158;2023-02-28T02:27:20;2.33;;;1.80;;
13568;SDS011;6856;51.460;7.158;2023-02-28T02:30:23;2.07;;;1.53;;
13568;SDS011;6856;51.460;7.158;2023-02-28T02:34:02;1.93;;;1.37;;
13568;SDS011;6856;51.460;7.158;2023-02-28T02:37:18;2.00;;;1.77;;
13568;SDS011;6856;51.460;7.158;2023-02-28T02:40:08;3.97;;;1.70;;
13568;SDS011;6856;51.460;7.158;2023-02-28T02:42:50;2.93;;;2.03;;
13568;SDS011;6856;51.460;7.158;2023-02-28T02:45:33;2.33;;;1.53;;
13568;SDS011;6856;51.460;7.158;2023-02-28T02:48:15;2.63;;;2.07;;
13568;SDS011;6856;51.460;7.158;2023-02-28T02:50:55;3.27;;;2.10;;
13568;SDS011;6856;51.460;7.158;2023-02-28T02:53:35;2.27;;;1.60;;
13568;SDS011;6856;51.460;7.158;2023-02-28T02:56:15;1.80;;;1.53;;
13568;SDS011;6856;51.460;7.158;2023-02-28T02:58:53;2.70;;;1.80;;
13568;SDS011;6856;51.460;7.158;2023-02-28T03:01:35;3.10;;;1.70;;
13568;SDS011;6856;51.460;7.158;2023-02-28T03:04:14;4.10;;;1.90;;
13568;SDS011;6856;51.460;7.158;2023-02-28T03:06:55;3.40;;;1.90;;
13568;SDS011;6856;51.460;7.158;2023-02-28T03:09:32;3.33;;;1.90;;
13568;SDS011;6856;51.460;7.158;2023-02-28T03:12:09;3.00;;;1.87;;
13568;SDS011;6856;51.460;7.158;2023-02-28T03:14:49;3.33;;;1.97;;
13568;SDS011;6856;51.460;7.158;2023-02-28T03:17:41;2.63;;;1.80;;
13568;SDS011;6856;51.460;7.158;2023-02-28T03:20:33;2.80;;;1.80;;
13568;SDS011;6856;51.460;7.158;2023-02-28T03:23:23;3.53;;;1.90;;
13568;SDS011;6856;51.460;7.158;2023-02-28T03:26:12;3.43;;;1.90;;
13568;SDS011;6856;51.460;7.158;2023-02-28T03:28:55;2.60;;;1.70;;
13568;SDS011;6856;51.460;7.158;2023-02-28T03:31:38;2.80;;;1.80;;
13568;SDS011;6856;51.460;7.158;2023-02-28T03:34:19;2.93;;;1.93;;
13568;SDS011;6856;51.460;7.158;2023-02-28T03:36:59;3.37;;;2.00;;
13568;SDS011;6856;51.460;7.158;2023-02-28T03:39:42;2.40;;;1.60;;
13568;SDS011;6856;51.460;7.158;2023-02-28T03:42:23;2.80;;;1.80;;
13568;SDS011;6856;51.460;7.158;2023-02-28T03:45:02;2.40;;;1.60;;
13568;SDS011;6856;51.460;7.158;2023-02-28T03:47:43;2.77;;;1.60;;
13568;SDS011;6856;51.460;7.158;2023-02-28T03:50:23;2.43;;;1.77;;
13568;SDS011;6856;51.460;7.158;2023-02-28T03:53:03;2.33;;;1.80;;
13568;SDS011;6856;51.460;7.158;2023-02-28T03:55:45;3.10;;;1.80;;
13568;SDS011;6856;51.460;7.158;2023-02-28T03:58:27;2.83;;;1.67;;
13568;SDS011;6856;51.460;7.158;2023-02-28T04:01:08;1.87;;;1.50;;
13568;SDS011;6856;51.460;7.158;2023-02-28T04:03:49;2.40;;;1.60;;
13568;SDS011;6856;51.460;7.158;2023-02-28T04:06:24;1.90;;;1.60;;
13568;SDS011;6856;51.460;7.158;2023-02-28T04:08:59;3.90;;;1.87;;
13568;SDS011;6856;51.460;7.158;2023-02-28T04:11:36;3.43;;;1.77;;
13568;SDS011;6856;51.460;7.158;2023-02-28T04:14:12;2.33;;;1.60;;
13568;SDS011;6856;51.460;7.158;2023-02-28T04:16:47;2.67;;;1.87;;
13568;SDS011;6856;51.460;7.158;2023-02-28T04:19:22;2.63;;;1.97;;
13568;SDS011;6856;51.460;7.158;2023-02-28T04:21:55;2.17;;;1.60;;
13568;SDS011;6856;51.460;7.158;2023-02-28T04:24:29;3.10;;;2.03;;
13568;SDS011;6856;51.460;7.158;2023-02-28T04:27:04;3.53;;;1.87;;
13568;SDS011;6856;51.460;7.158;2023-02-28T04:29:38;2.17;;;1.60;;
13568;SDS011;6856;51.460;7.158;2023-02-28T04:32:15;2.90;;;1.90;;
13568;SDS011;6856;51.460;7.158;2023-02-28T04:34:49;3.30;;;1.80;;
13568;SDS011;6856;51.460;7.158;2023-02-28T04:37:23;4.33;;;2.00;;
13568;SDS011;6856;51.460;7.158;2023-02-28T04:40:00;3.23;;;1.57;;
13568;SDS011;6856;51.460;7.158;2023-02-28T04:42:35;3.10;;;1.87;;
13568;SDS011;6856;51.460;7.158;2023-02-28T04:45:09;2.77;;;1.60;;
13568;SDS011;6856;51.460;7.158;2023-02-28T04:47:43;2.30;;;1.60;;
13568;SDS011;6856;51.460;7.158;2023-02-28T04:50:17;3.03;;;1.83;;
13568;SDS011;6856;51.460;7.158;2023-02-28T04:52:50;3.53;;;1.73;;
13568;SDS011;6856;51.460;7.158;2023-02-28T04:55:24;4.00;;;2.20;;
13568;SDS011;6856;51.460;7.158;2023-02-28T04:58:00;2.60;;;2.00;;
13568;SDS011;6856;51.460;7.158;2023-02-28T05:00:35;2.37;;;1.70;;
13568;SDS011;6856;51.460;7.158;2023-02-28T05:03:09;3.33;;;1.80;;
13568;SDS011;6856;51.460;7.158;2023-02-28T05:05:43;3.07;;;1.90;;
13568;SDS011;6856;51.460;7.158;2023-02-28T05:08:17;2.97;;;1.80;;
13568;SDS011;6856;51.460;7.158;2023-02-28T05:10:51;3.10;;;1.67;;
13568;SDS011;6856;51.460;7.158;2023-02-28T05:13:26;4.37;;;1.63;;
13568;SDS011;6856;51.460;7.158;2023-02-28T05:16:01;2.70;;;1.80;;
13568;SDS011;6856;51.460;7.158;2023-02-28T05:18:35;4.07;;;1.90;;
13568;SDS011;6856;51.460;7.158;2023-02-28T05:21:21;2.27;;;1.70;;
13568;SDS011;6856;51.460;7.158;2023-02-28T05:24:00;2.83;;;1.70;;
13568;SDS011;6856;51.460;7.158;2023-02-28T05:26:36;3.80;;;2.27;;
13568;SDS011;6856;51.460;7.158;2023-02-28T05:29:14;2.77;;;1.87;;
13568;SDS011;6856;51.460;7.158;2023-02-28T05:31:48;3.33;;;2.00;;
13568;SDS011;6856;51.460;7.158;2023-02-28T05:34:25;2.37;;;1.70;;
13568;SDS011;6856;51.460;7.158;2023-02-28T05:36:59;4.30;;;2.67;;
13568;SDS011;6856;51.460;7.158;2023-02-28T05:39:33;2.23;;;1.60;;
13568;SDS011;6856;51.460;7.158;2023-02-28T05:42:06;3.30;;;1.93;;
13568;SDS011;6856;51.460;7.158;2023-02-28T05:44:42;3.83;;;2.10;;
13568;SDS011;6856;51.460;7.158;2023-02-28T05:47:16;3.23;;;2.33;;
13568;SDS011;6856;51.460;7.158;2023-02-28T05:49:49;3.27;;;1.67;;
13568;SDS011;6856;51.460;7.158;2023-02-28T05:52:23;3.47;;;2.10;;
13568;SDS011;6856;51.460;7.158;2023-02-28T05:54:57;2.83;;;1.87;;
13568;SDS011;6856;51.460;7.158;2023-02-28T05:57:31;3.63;;;2.27;;
13568;SDS011;6856;51.460;7.158;2023-02-28T06:00:08;3.80;;;1.90;;
13568;SDS011;6856;51.460;7.158;2023-02-28T06:02:46;3.03;;;1.80;;
13568;SDS011;6856;51.460;7.158;2023-02-28T06:05:20;3.60;;;2.10;;
13568;SDS011;6856;51.460;7.158;2023-02-28T06:07:54;3.07;;;1.90;;
13568;SDS011;6856;51.460;7.158;2023-02-28T06:10:28;3.00;;;2.00;;
13568;SDS011;6856;51.460;7.158;2023-02-28T06:13:03;4.67;;;2.30;;
13568;SDS011;6856;51.460;7.158;2023-02-28T06:15:40;3.57;;;1.90;;
13568;SDS011;6856;51.460;7.158;2023-02-28T06:18:14;3.17;;;2.00;;
13568;SDS011;6856;51.460;7.158;2023-02-28T06:20:52;3.03;;;1.80;;
13568;SDS011;6856;51.460;7.158;2023-02-28T06:23:27;4.77;;;2.40;;
13568;SDS011;6856;51.460;7.158;2023-02-28T06:26:01;3.60;;;2.20;;
13568;SDS011;6856;51.460;7.158;2023-02-28T06:28:35;3.87;;;2.13;;
13568;SDS011;6856;51.460;7.158;2023-02-28T06:31:11;2.47;;;1.83;;
13568;SDS011;6856;51.460;7.158;2023-02-28T06:33:47;3.60;;;1.90;;
13568;SDS011;6856;51.460;7.158;2023-02-28T06:36:22;3.60;;;2.20;;
13568;SDS011;6856;51.460;7.158;2023-02-28T06:38:57;2.80;;;1.80;;
13568;SDS011;6856;51.460;7.158;2023-02-28T06:41:31;3.77;;;1.83;;
13568;SDS011;6856;51.460;7.158;2023-02-28T06:44:24;5.20;;;2.03;;
13568;SDS011;6856;51.460;7.158;2023-02-28T06:47:00;2.43;;;1.73;;
13568;SDS011;6856;51.460;7.158;2023-02-28T06:49:35;3.00;;;2.20;;
13568;SDS011;6856;51.460;7.158;2023-02-28T06:52:10;2.77;;;1.70;;
13568;SDS011;6856;51.460;7.158;2023-02-28T06:54:44;3.60;;;2.13;;
13568;SDS011;6856;51.460;7.158;2023-02-28T06:57:18;2.57;;;2.03;;
13568;SDS011;6856;51.460;7.158;2023-02-28T06:59:52;3.43;;;2.43;;
13568;SDS011;6856;51.460;7.158;2023-02-28T07:02:27;3.50;;;2.23;;
13568;SDS011;6856;51.460;7.158;2023-02-28T07:05:01;3.60;;;2.40;;
13568;SDS011;6856;51.460;7.158;2023-02-28T07:07:36;3.20;;;2.20;;
13568;SDS011;6856;51.460;7.158;2023-02-28T07:10:12;5.67;;;2.67;;
13568;SDS011;6856;51.460;7.158;2023-02-28T07:12:50;3.97;;;2.33;;
13568;SDS011;6856;51.460;7.158;2023-02-28T07:15:24;3.13;;;2.50;;
13568;SDS011;6856;51.460;7.158;2023-02-28T07:18:01;4.83;;;2.53;;
13568;SDS011;6856;51.460;7.158;2023-02-28T07:20:35;4.53;;;2.30;;
13568;SDS011;6856;51.460;7.158;2023-02-28T07:23:09;5.10;;;2.27;;
13568;SDS011;6856;51.460;7.158;2023-02-28T07:25:43;3.37;;;2.30;;
13568;SDS011;6856;51.460;7.158;2023-02-28T07:28:19;3.13;;;2.20;;
13568;SDS011;6856;51.460;7.158;2023-02-28T07:30:53;3.33;;;2.07;;
13568;SDS011;6856;51.460;7.158;2023-02-28T07:33:28;3.20;;;2.30;;
13568;SDS011;6856;51.460;7.158;2023-02-28T07:36:03;3.63;;;2.13;;
13568;SDS011;6856;51.460;7.158;2023-02-28T07:38:39;3.13;;;2.27;;
13568;SDS011;6856;51.460;7.158;2023-02-28T07:41:12;3.27;;;2.17;;
13568;SDS011;6856;51.460;7.158;2023-02-28T07:43:47;2.93;;;2.00;;
13568;SDS011;6856;51.460;7.158;2023-02-28T07:46:21;3.17;;;2.43;;
13568;SDS011;6856;51.460;7.158;2023-02-28T07:48:57;3.67;;;2.20;;
13568;SDS011;6856;51.460;7.158;2023-02-28T07:51:31;3.33;;;2.10;;
13568;SDS011;6856;51.460;7.158;2023-02-28T07:54:06;2.80;;;2.30;;
13568;SDS011;6856;51.460;7.158;2023-02-28T07:56:39;5.00;;;2.27;;
13568;SDS011;6856;51.460;7.158;2023-02-28T07:59:13;4.30;;;2.23;;
13568;SDS011;6856;51.460;7.158;2023-02-28T08:01:47;2.33;;;1.90;;
13568;SDS011;6856;51.460;7.158;2023-02-28T08:04:23;3.43;;;2.10;;
13568;SDS011;6856;51.460;7.158;2023-02-28T08:06:58;2.43;;;1.97;;
13568;SDS011;6856;51.460;7.158;2023-02-28T08:09:32;2.47;;;2.10;;
13568;SDS011;6856;51.460;7.158;2023-02-28T08:12:07;3.20;;;2.33;;
13568;SDS011;6856;51.460;7.158;2023-02-28T08:14:42;3.87;;;2.30;;
13568;SDS011;6856;51.460;7.158;2023-02-28T08:17:16;3.33;;;2.00;;
13568;SDS011;6856;51.460;7.158;2023-02-28T08:19:51;2.80;;;2.03;;
13568;SDS011;6856;51.460;7.158;2023-02-28T08:22:26;3.27;;;2.23;;
13568;SDS011;6856;51.460;7.158;2023-02-28T08:25:01;2.23;;;1.87;;
13568;SDS011;6856;51.460;7.158;2023-02-28T08:27:35;3.57;;;2.00;;
13568;SDS011;6856;51.460;7.158;2023-02-28T08:30:10;1.93;;;1.60;;
13568;SDS011;6856;51.460;7.158;2023-02-28T08:32:45;2.50;;;2.00;;
13568;SDS011;6856;51.460;7.158;2023-02-28T08:35:20;3.40;;;1.83;;
13568;SDS011;6856;51.460;7.158;2023-02-28T08:37:54;3.57;;;2.13;;
13568;SDS011;6856;51.460;7.158;2023-02-28T08:40:28;3.63;;;2.00;;
13568;SDS011;6856;51.460;7.158;2023-02-28T08:43:02;3.00;;;2.10;;
13568;SDS011;6856;51.460;7.158;2023-02-28T08:45:37;2.73;;;2.10;;
13568;SDS011;6856;51.460;7.158;2023-02-28T08:48:11;2.57;;;2.00;;
13568;SDS011;6856;51.460;7.158;2023-02-28T08:50:53;2.57;;;1.77;;
13568;SDS011;6856;51.460;7.158;2023-02-28T08:53:38;2.27;;;1.80;;
13568;SDS011;6856;51.460;7.158;2023-02-28T08:56:13;3.27;;;1.70;;
13568;SDS011;6856;51.460;7.158;2023-02-28T08:58:49;2.70;;;1.70;;
13568;SDS011;6856;51.460;7.158;2023-02-28T09:01:27;5.53;;;2.10;;
13568;SDS011;6856;51.460;7.158;2023-02-28T09:04:03;2.93;;;1.80;;
13568;SDS011;6856;51.460;7.158;2023-02-28T09:06:41;3.47;;;2.10;;
13568;SDS011;6856;51.460;7.158;2023-02-28T09:09:16;2.70;;;1.77;;
13568;SDS011;6856;51.460;7.158;2023-02-28T09:11:50;2.37;;;1.70;;
13568;SDS011;6856;51.460;7.158;2023-02-28T09:14:23;3.53;;;1.77;;
13568;SDS011;6856;51.460;7.158;2023-02-28T09:16:57;2.40;;;1.93;;
13568;SDS011;6856;51.460;7.158;2023-02-28T09:19:31;5.93;;;2.30;;
13568;SDS011;6856;51.460;7.158;2023-02-28T09:22:06;3.37;;;2.20;;
13568;SDS011;6856;51.460;7.158;2023-02-28T09:24:40;3.60;;;2.00;;
13568;SDS011;6856;51.460;7.158;2023-02-28T09:27:16;2.53;;;1.93;;
13568;SDS011;6856;51.460;7.158;2023-02-28T09:29:49;2.90;;;1.87;;
13568;SDS011;6856;51.460;7.158;2023-02-28T09:32:23;3.70;;;1.83;;
13568;SDS011;6856;51.460;7.158;2023-02-28T09:34:57;2.53;;;1.70;;
13568;SDS011;6856;51.460;7.158;2023-02-28T09:37:32;2.87;;;1.87;;
13568;SDS011;6856;51.460;7.158;2023-02-28T09:40:07;2.17;;;1.60;;
13568;SDS011;6856;51.460;7.158;2023-02-28T09:42:45;2.13;;;1.60;;
13568;SDS011;6856;51.460;7.158;2023-02-28T09:45:22;1.73;;;1.60;;
13568;SDS011;6856;51.460;7.158;2023-02-28T09:48:03;2.67;;;1.70;;
13568;SDS011;6856;51.460;7.158;2023-02-28T09:50:46;2.33;;;1.70;;
13568;SDS011;6856;51.460;7.158;2023-02-28T09:53:27;2.57;;;1.67;;
13568;SDS011;6856;51.460;7.158;2023-02-28T09:56:07;4.67;;;1.80;;
13568;SDS011;6856;51.460;7.158;2023-02-28T09:58:44;1.73;;;1.37;;
13568;SDS011;6856;51.460;7.158;2023-02-28T10:01:26;2.20;;;1.60;;
13568;SDS011;6856;51.460;7.158;2023-02-28T10:04:11;2.13;;;1.53;;
13568;SDS011;6856;51.460;7.158;2023-02-28T10:07:11;2.63;;;1.60;;
13568;SDS011;6856;51.460;7.158;2023-02-28T10:09:59;1.87;;;1.57;;
13568;SDS011;6856;51.460;7.158;2023-02-28T10:12:49;2.73;;;1.40;;
13568;SDS011;6856;51.460;7.158;2023-02-28T10:15:29;2.00;;;1.50;;
13568;SDS011;6856;51.460;7.158;2023-02-28T10:18:09;1.93;;;1.37;;
13568;SDS011;6856;51.460;7.158;2023-02-28T10:20:51;2.43;;;1.50;;
13568;SDS011;6856;51.460;7.158;2023-02-28T10:23:28;2.13;;;1.30;;
13568;SDS011;6856;51.460;7.158;2023-02-28T10:26:11;2.97;;;1.70;;
13568;SDS011;6856;51.460;7.158;2023-02-28T10:28:48;2.00;;;1.50;;
13568;SDS011;6856;51.460;7.158;2023-02-28T10:31:24;2.10;;;1.43;;
13568;SDS011;6856;51.460;7.158;2023-02-28T10:33:58;1.80;;;1.37;;
13568;SDS011;6856;51.460;7.158;2023-02-28T10:36:33;3.17;;;1.47;;
13568;SDS011;6856;51.460;7.158;2023-02-28T10:42:21;1.63;;;1.20;;
13568;SDS011;6856;51.460;7.158;2023-02-28T10:45:10;2.37;;;1.20;;
13568;SDS011;6856;51.460;7.158;2023-02-28T10:47:51;1.77;;;1.03;;
13568;SDS011;6856;51.460;7.158;2023-02-28T10:50:29;1.40;;;1.10;;
13568;SDS011;6856;51.460;7.158;2023-02-28T10:53:16;1.23;;;1.10;;
13568;SDS011;6856;51.460;7.158;2023-02-28T10:56:31;1.77;;;1.30;;
13568;SDS011;6856;51.460;7.158;2023-02-28T10:59:22;1.30;;;1.20;;
13568;SDS011;6856;51.460;7.158;2023-02-28T11:02:08;2.00;;;1.50;;
13568;SDS011;6856;51.460;7.158;2023-02-28T11:05:21;2.70;;;1.20;;
13568;SDS011;6856;51.460;7.158;2023-02-28T11:08:04;1.73;;;1.30;;
13568;SDS011;6856;51.460;7.158;2023-02-28T11:10:44;1.60;;;1.13;;
13568;SDS011;6856;51.460;7.158;2023-02-28T11:13:21;1.40;;;1.20;;
13568;SDS011;6856;51.460;7.158;2023-02-28T11:16:04;2.80;;;1.30;;
13568;SDS011;6856;51.460;7.158;2023-02-28T11:18:43;1.23;;;1.10;;
13568;SDS011;6856;51.460;7.158;2023-02-28T11:21:23;1.67;;;1.30;;
13568;SDS011;6856;51.460;7.158;2023-02-28T11:24:02;1.67;;;1.20;;
13568;SDS011;6856;51.460;7.158;2023-02-28T11:26:48;1.57;;;1.20;;
13568;SDS011;6856;51.460;7.158;2023-02-28T11:29:23;2.60;;;1.70;;
13568;SDS011;6856;51.460;7.158;2023-02-28T11:32:05;3.77;;;1.50;;
13568;SDS011;6856;51.460;7.158;2023-02-28T11:34:59;2.30;;;1.60;;
13568;SDS011;6856;51.460;7.158;2023-02-28T11:37:38;1.37;;;1.20;;
13568;SDS011;6856;51.460;7.158;2023-02-28T11:40:13;1.43;;;1.30;;
13568;SDS011;6856;51.460;7.158;2023-02-28T11:42:54;1.53;;;1.43;;
13568;SDS011;6856;51.460;7.158;2023-02-28T11:45:43;2.27;;;1.10;;
13568;SDS011;6856;51.460;7.158;2023-02-28T11:48:36;2.07;;;1.40;;
13568;SDS011;6856;51.460;7.158;2023-02-28T11:51:24;3.23;;;1.50;;
13568;SDS011;6856;51.460;7.158;2023-02-28T11:54:12;1.67;;;1.23;;
13568;SDS011;6856;51.460;7.158;2023-02-28T11:57:19;1.40;;;1.10;;
13568;SDS011;6856;51.460;7.158;2023-02-28T12:00:13;2.57;;;1.50;;
13568;SDS011;6856;51.460;7.158;2023-02-28T12:03:09;1.57;;;1.30;;
13568;SDS011;6856;51.460;7.158;2023-02-28T12:06:03;1.70;;;1.27;;
13568;SDS011;6856;51.460;7.158;2023-02-28T12:08:56;2.60;;;1.53;;
13568;SDS011;6856;51.460;7.158;2023-02-28T12:11:56;3.37;;;1.50;;
13568;SDS011;6856;51.460;7.158;2023-02-28T12:14:47;1.73;;;1.40;;
13568;SDS011;6856;51.460;7.158;2023-02-28T12:17:39;1.40;;;1.17;;
13568;SDS011;6856;51.460;7.158;2023-02-28T12:20:30;1.87;;;1.40;;
13568;SDS011;6856;51.460;7.158;2023-02-28T12:26:14;1.80;;;1.40;;
13568;SDS011;6856;51.460;7.158;2023-02-28T12:28:57;1.47;;;1.20;;
13568;SDS011;6856;51.460;7.158;2023-02-28T12:31:41;1.67;;;1.40;;
13568;SDS011;6856;51.460;7.158;2023-02-28T12:34:24;1.57;;;1.20;;
13568;SDS011;6856;51.460;7.158;2023-02-28T12:37:05;1.57;;;1.30;;
13568;SDS011;6856;51.460;7.158;2023-02-28T12:39:48;1.77;;;1.50;;
13568;SDS011;6856;51.460;7.158;2023-02-28T12:42:30;1.67;;;1.27;;
13568;SDS011;6856;51.460;7.158;2023-02-28T12:45:13;1.83;;;1.50;;
13568;SDS011;6856;51.460;7.158;2023-02-28T12:47:53;1.90;;;1.40;;
13568;SDS011;6856;51.460;7.158;2023-02-28T12:50:32;1.90;;;1.57;;
13568;SDS011;6856;51.460;7.158;2023-02-28T12:53:08;2.00;;;1.60;;
13568;SDS011;6856;51.460;7.158;2023-02-28T12:55:56;2.77;;;1.40;;
13568;SDS011;6856;51.460;7.158;2023-02-28T12:58:48;2.10;;;1.50;;
13568;SDS011;6856;51.460;7.158;2023-02-28T13:04:57;2.77;;;1.60;;
13568;SDS011;6856;51.460;7.158;2023-02-28T13:11:23;1.83;;;1.50;;
13568;SDS011;6856;51.460;7.158;2023-02-28T13:14:03;1.67;;;1.37;;
13568;SDS011;6856;51.460;7.158;2023-02-28T13:16:50;2.13;;;1.70;;
13568;SDS011;6856;51.460;7.158;2023-02-28T13:19:32;2.13;;;1.40;;
13568;SDS011;6856;51.460;7.158;2023-02-28T13:22:16;2.00;;;1.50;;
13568;SDS011;6856;51.460;7.158;2023-02-28T13:38:21;1.70;;;1.40;;
13568;SDS011;6856;51.460;7.158;2023-02-28T13:44:22;2.20;;;1.53;;
13568;SDS011;6856;51.460;7.158;2023-02-28T13:47:19;1.60;;;1.43;;
13568;SDS011;6856;51.460;7.158;2023-02-28T13:56:18;2.23;;;1.47;;
13568;SDS011;6856;51.460;7.158;2023-02-28T13:59:12;2.23;;;1.53;;
13568;SDS011;6856;51.460;7.158;2023-02-28T14:02:03;2.13;;;1.70;;
13568;SDS011;6856;51.460;7.158;2023-02-28T14:05:10;2.77;;;1.60;;
13568;SDS011;6856;51.460;7.158;2023-02-28T14:07:54;2.37;;;1.63;;
13568;SDS011;6856;51.460;7.158;2023-02-28T14:10:33;3.00;;;1.90;;
13568;SDS011;6856;51.460;7.158;2023-02-28T14:16:20;2.20;;;1.73;;
13568;SDS011;6856;51.460;7.158;2023-02-28T14:18:58;2.07;;;1.70;;
13568;SDS011;6856;51.460;7.158;2023-02-28T14:21:49;2.77;;;1.80;;
13568;SDS011;6856;51.460;7.158;2023-02-28T14:27:58;2.00;;;1.43;;
13568;SDS011;6856;51.460;7.158;2023-02-28T14:30:53;2.27;;;1.50;;
13568;SDS011;6856;51.460;7.158;2023-02-28T14:33:41;2.27;;;1.70;;
13568;SDS011;6856;51.460;7.158;2023-02-28T14:36:33;2.90;;;1.87;;
13568;SDS011;6856;51.460;7.158;2023-02-28T14:39:12;2.53;;;1.80;;
13568;SDS011;6856;51.460;7.158;2023-02-28T14:41:50;2.30;;;1.67;;
13568;SDS011;6856;51.460;7.158;2023-02-28T14:44:26;2.10;;;1.70;;
13568;SDS011;6856;51.460;7.158;2023-02-28T14:47:01;2.90;;;1.80;;
13568;SDS011;6856;51.460;7.158;2023-02-28T14:49:42;2.50;;;1.70;;
13568;SDS011;6856;51.460;7.158;2023-02-28T14:52:21;2.90;;;1.80;;
13568;SDS011;6856;51.460;7.158;2023-02-28T14:54:59;3.50;;;2.20;;
13568;SDS011;6856;51.460;7.158;2023-02-28T14:57:41;3.20;;;1.83;;
13568;SDS011;6856;51.460;7.158;2023-02-28T15:00:24;2.63;;;1.80;;
13568;SDS011;6856;51.460;7.158;2023-02-28T15:03:11;2.20;;;1.70;;
13568;SDS011;6856;51.460;7.158;2023-02-28T15:05:54;3.07;;;1.80;;
13568;SDS011;6856;51.460;7.158;2023-02-28T15:08:30;2.63;;;1.70;;
13568;SDS011;6856;51.460;7.158;2023-02-28T15:11:08;2.60;;;2.00;;
13568;SDS011;6856;51.460;7.158;2023-02-28T15:13:49;2.53;;;1.60;;
13568;SDS011;6856;51.460;7.158;2023-02-28T15:16:28;2.50;;;2.07;;
13568;SDS011;6856;51.460;7.158;2023-02-28T15:19:11;2.77;;;1.87;;
13568;SDS011;6856;51.460;7.158;2023-02-28T15:21:55;2.57;;;2.00;;
13568;SDS011;6856;51.460;7.158;2023-02-28T15:24:38;2.30;;;1.90;;
13568;SDS011;6856;51.460;7.158;2023-02-28T15:27:19;2.27;;;1.80;;
13568;SDS011;6856;51.460;7.158;2023-02-28T15:29:58;4.27;;;2.10;;
13568;SDS011;6856;51.460;7.158;2023-02-28T15:32:37;2.73;;;2.00;;
13568;SDS011;6856;51.460;7.158;2023-02-28T15:35:19;2.93;;;1.90;;
13568;SDS011;6856;51.460;7.158;2023-02-28T15:38:02;3.10;;;1.97;;
13568;SDS011;6856;51.460;7.158;2023-02-28T15:40:50;2.77;;;2.10;;
13568;SDS011;6856;51.460;7.158;2023-02-28T15:43:29;2.80;;;1.67;;
13568;SDS011;6856;51.460;7.158;2023-02-28T15:46:06;3.40;;;2.10;;
13568;SDS011;6856;51.460;7.158;2023-02-28T15:48:44;2.60;;;1.80;;
13568;SDS011;6856;51.460;7.158;2023-02-28T15:51:29;2.07;;;1.70;;
13568;SDS011;6856;51.460;7.158;2023-02-28T15:54:07;2.73;;;1.87;;
13568;SDS011;6856;51.460;7.158;2023-02-28T15:56:49;2.87;;;1.87;;
13568;SDS011;6856;51.460;7.158;2023-02-28T15:59:28;2.83;;;1.80;;
13568;SDS011;6856;51.460;7.158;2023-02-28T16:02:14;2.50;;;2.03;;
13568;SDS011;6856;51.460;7.158;2023-02-28T16:04:59;2.97;;;2.20;;
13568;SDS011;6856;51.460;7.158;2023-02-28T16:07:52;4.10;;;2.00;;
13568;SDS011;6856;51.460;7.158;2023-02-28T16:10:27;4.30;;;2.63;;
13568;SDS011;6856;51.460;7.158;2023-02-28T16:13:02;2.83;;;1.90;;
13568;SDS011;6856;51.460;7.158;2023-02-28T16:15:37;2.63;;;2.00;;
13568;SDS011;6856;51.460;7.158;2023-02-28T16:18:16;2.57;;;2.00;;
13568;SDS011;6856;51.460;7.158;2023-02-28T16:20:50;3.37;;;2.10;;
13568;SDS011;6856;51.460;7.158;2023-02-28T16:23:23;2.97;;;2.07;;
13568;SDS011;6856;51.460;7.158;2023-02-28T16:25:57;2.93;;;2.00;;
13568;SDS011;6856;51.460;7.158;2023-02-28T16:28:31;3.37;;;2.07;;
13568;SDS011;6856;51.460;7.158;2023-02-28T16:31:09;3.97;;;2.53;;
13568;SDS011;6856;51.460;7.158;2023-02-28T16:33:49;2.47;;;2.07;;
13568;SDS011;6856;51.460;7.158;2023-02-28T16:36:23;3.17;;;2.30;;
13568;SDS011;6856;51.460;7.158;2023-02-28T16:38:57;2.57;;;1.90;;
13568;SDS011;6856;51.460;7.158;2023-02-28T16:41:30;6.50;;;2.60;;
13568;SDS011;6856;51.460;7.158;2023-02-28T16:44:07;3.13;;;2.17;;
13568;SDS011;6856;51.460;7.158;2023-02-28T16:46:47;2.43;;;1.90;;
13568;SDS011;6856;51.460;7.158;2023-02-28T16:49:22;3.90;;;2.40;;
13568;SDS011;6856;51.460;7.158;2023-02-28T16:51:57;3.97;;;2.90;;
13568;SDS011;6856;51.460;7.158;2023-02-28T16:54:32;4.90;;;3.20;;
13568;SDS011;6856;51.460;7.158;2023-02-28T16:57:05;3.90;;;2.70;;
13568;SDS011;6856;51.460;7.158;2023-02-28T16:59:52;3.23;;;2.47;;
13568;SDS011;6856;51.460;7.158;2023-02-28T17:02:26;3.07;;;2.13;;
13568;SDS011;6856;51.460;7.158;2023-02-28T17:05:01;3.07;;;2.17;;